Medlin's Ranch, Nevada Weather observations

Data are for observation ending at time listed.
 Day   Time    Ave.   Ave.  Ave.  Vector   Max.   Stn.    Total    Solar   Ave.  
  of    of     Air    Rel.  Wind   Wind    Wind   Baro.  Precip.   Rad.    Soil  
Year   Day     Temp.  Hum.  Speed  Dir.    Gust   Pres.                    Temp. 
2016   (PST)    F      %     mph   deg.    mph     mb.     in.     W/m2     F   
------------------------------------------------------------------------------
 237    4:00   60.0    55    3.5   275      5.3    866     0.00       0    81.0
 237    5:00   59.7    56    4.9   264      7.3    867     0.00       0    80.0
 237    6:00   58.3    56    2.3   327      4.8    867     0.00      36    79.0
 237    7:00   67.6    42    1.3   312      3.6    867     0.00     208    78.2
 237    8:00   75.7    30    2.3   326      6.3    868     0.00     427    78.0
 237    9:00   80.3    25    2.2   106      6.1    868     0.00     619    79.4
 237   10:00   83.5    21    3.6   146     10.2    867     0.00     786    82.1
 237   11:00   86.5    17    4.3   154     12.3    867     0.00     894    85.5
 237   12:00   88.4    14    5.7   148     14.4    866     0.00     905    89.3
 237   13:00   90.2    10   12.8   263     27.0    865     0.00     768    92.8
 237   14:00   91.5     9   12.0   248     25.4    865     0.00     822    94.9
 237   15:00   91.7     8   11.3   261     29.5    864     0.00     676    95.6
 237   16:00   92.0     7    9.5   273     23.2    863     0.00     561    96.0
 237   17:00   91.3     7    8.3   276     19.8    863     0.00     334    96.2
 237   18:00   90.0     7    7.2   280     14.7    863     0.00     139    95.6
 237   19:00   83.4     8    4.3   279      7.7    863     0.00       5    94.4
 237   20:00   78.9    14    4.9   229     11.2    863     0.00       0    92.6
 237   21:00   74.0    17    3.4   266      6.4    863     0.00       0    90.8
 237   22:00   71.0    13    2.7   310      6.3    864     0.00       0    89.0
 237   23:00   68.8    14    3.5   316      7.3    864     0.00       0    87.3
 238    0:00   67.0    17    4.0   302      6.5    864     0.00       0    85.8
 238    1:00   67.2    20    3.9   307      7.7    864     0.00       0    84.3
 238    2:00   67.4    20    2.8   286      5.9    864     0.00       0    83.1
 238    3:00   64.3    26    3.3   273      5.6    864     0.00       0    82.1

Return to Medlin's Ranch, Nevada graphs page.


Western Regional Climate Center,wrcc@dri.edu